Time;durP1;ratioP1;P1;durP2;ratioP2;P2;SDS_P1;SDS_P2;PMS_P1;PMS_P2;Temp;Humidity;BMP_temperature;BMP_pressure;BME280_temperature;BME280_humidity;BME280_pressure;Samples;Min_cycle;Max_cycle;Signal;HPM_P1;HPM_P2
2022/04/19 00:00:45;;;;;;;2.53;1.60;;;13.10;37.20;;;;;;5001354;28;20058;-43
2022/04/19 00:03:14;;;;;;;4.07;2.05;;;13.00;37.10;;;;;;4998144;28;20490;-44
2022/04/19 00:05:42;;;;;;;3.30;1.73;;;13.00;37.20;;;;;;5001304;28;20406;-47
2022/04/19 00:08:11;;;;;;;4.07;1.92;;;12.90;37.10;;;;;;5001122;28;20054;-43
2022/04/19 00:10:42;;;;;;;2.63;1.73;;;13.00;37.30;;;;;;4997178;28;20054;-46
2022/04/19 00:13:12;;;;;;;3.20;2.10;;;12.90;37.30;;;;;;4997335;28;20478;-44
2022/04/19 00:15:40;;;;;;;4.00;2.08;;;12.80;37.30;;;;;;4999229;28;20137;-43
2022/04/19 00:18:09;;;;;;;3.70;1.65;;;12.90;37.40;;;;;;5001933;28;20057;-43
2022/04/19 00:20:38;;;;;;;2.95;1.63;;;12.80;37.40;;;;;;4996659;28;20057;-44
2022/04/19 00:23:12;;;;;;;3.22;1.70;;;12.70;37.40;;;;;;4998569;28;20080;-44
2022/04/19 00:25:42;;;;;;;4.00;2.08;;;12.70;37.40;;;;;;4999521;28;20081;-43
2022/04/19 00:28:09;;;;;;;3.40;1.90;;;12.70;37.50;;;;;;5001171;28;20061;-43
2022/04/19 00:30:37;;;;;;;3.78;1.77;;;12.60;37.60;;;;;;4999485;28;20050;-43
2022/04/19 00:33:05;;;;;;;4.13;1.77;;;12.60;37.60;;;;;;4995981;28;20054;-47
2022/04/19 00:35:32;;;;;;;4.25;1.75;;;12.60;37.60;;;;;;5000247;28;20061;-43
2022/04/19 00:38:00;;;;;;;2.80;1.60;;;12.60;37.70;;;;;;5001912;28;20049;-43
2022/04/19 00:40:28;;;;;;;2.88;1.67;;;12.50;37.80;;;;;;4999612;28;20064;-43
2022/04/19 00:42:57;;;;;;;2.45;1.63;;;12.50;37.90;;;;;;4997619;28;20414;-46
2022/04/19 00:45:26;;;;;;;3.25;1.63;;;12.50;38.00;;;;;;5000790;28;20642;-43
2022/04/19 00:47:55;;;;;;;6.97;1.60;;;12.40;38.00;;;;;;5001746;28;20058;-47
2022/04/19 00:50:24;;;;;;;2.83;1.55;;;12.40;37.90;;;;;;4996273;28;20513;-43
2022/04/19 00:52:52;;;;;;;2.17;1.45;;;12.40;38.00;;;;;;4997137;28;20046;-45
2022/04/19 00:55:20;;;;;;;2.30;1.50;;;12.40;38.00;;;;;;5000164;28;20421;-44
2022/04/19 00:57:47;;;;;;;5.72;1.70;;;12.40;38.10;;;;;;4998639;28;20049;-45
2022/04/19 01:00:17;;;;;;;2.20;1.35;;;12.40;38.00;;;;;;4999075;28;20058;-43
2022/04/19 01:02:44;;;;;;;2.50;1.50;;;12.30;38.00;;;;;;4995803;28;20049;-45
2022/04/19 01:05:13;;;;;;;3.15;1.40;;;12.30;38.10;;;;;;5000337;28;20061;-46
2022/04/19 01:07:40;;;;;;;4.80;1.70;;;12.30;38.20;;;;;;5001262;28;20050;-43
2022/04/19 01:10:09;;;;;;;5.68;2.05;;;12.30;38.40;;;;;;4998801;28;20049;-43
2022/04/19 01:15:34;;;;;;;3.05;1.83;;;12.20;38.50;;;;;;4922261;29;20047;-44
2022/04/19 01:18:02;;;;;;;1.80;1.33;;;12.20;38.50;;;;;;4981540;28;20065;-44
2022/04/19 01:20:30;;;;;;;3.03;1.70;;;12.20;38.50;;;;;;5000239;28;20057;-45
2022/04/19 01:22:59;;;;;;;2.47;1.38;;;12.20;38.60;;;;;;4997467;28;20049;-43
2022/04/19 01:25:26;;;;;;;2.25;1.30;;;12.20;38.60;;;;;;5000858;28;20061;-43
2022/04/19 01:27:54;;;;;;;4.22;2.00;;;12.20;38.50;;;;;;4998469;28;20057;-43
2022/04/19 01:30:21;;;;;;;3.10;1.50;;;12.10;38.60;;;;;;5000074;28;20057;-43
2022/04/19 01:32:49;;;;;;;3.22;1.30;;;12.10;38.60;;;;;;4976317;28;20141;-43
2022/04/19 01:35:17;;;;;;;2.95;1.67;;;12.10;38.60;;;;;;5001283;28;20058;-44
2022/04/19 01:37:46;;;;;;;3.33;1.80;;;12.10;38.70;;;;;;4995845;28;20061;-44
2022/04/19 01:40:19;;;;;;;3.08;1.60;;;12.00;38.70;;;;;;4995444;28;20061;-45
2022/04/19 01:42:48;;;;;;;2.80;1.45;;;12.00;38.80;;;;;;4998933;28;20054;-43
2022/04/19 01:45:17;;;;;;;1.85;1.40;;;12.00;39.00;;;;;;4999081;28;20060;-43
2022/04/19 01:47:45;;;;;;;3.30;1.73;;;12.00;39.10;;;;;;5000896;28;20065;-43
2022/04/19 01:50:15;;;;;;;3.42;1.58;;;11.90;39.10;;;;;;4998412;28;20057;-43
2022/04/19 01:52:43;;;;;;;4.40;1.75;;;11.90;39.20;;;;;;4997954;28;20050;-43
2022/04/19 01:55:13;;;;;;;2.65;1.50;;;11.90;39.10;;;;;;4999745;28;20096;-43
2022/04/19 01:57:43;;;;;;;4.93;2.08;;;11.80;39.10;;;;;;5000169;28;20053;-43
2022/04/19 02:00:12;;;;;;;2.45;1.67;;;11.80;39.20;;;;;;5000690;28;20493;-43
2022/04/19 02:02:40;;;;;;;2.53;1.55;;;11.80;39.30;;;;;;4997397;28;20430;-44
2022/04/19 02:05:08;;;;;;;2.70;1.55;;;11.70;39.40;;;;;;5000725;28;20422;-44
2022/04/19 02:07:39;;;;;;;3.30;1.85;;;11.70;39.50;;;;;;5000057;28;20064;-44
2022/04/19 02:10:08;;;;;;;1.52;1.20;;;11.70;39.80;;;;;;4997575;28;20068;-43
2022/04/19 02:12:35;;;;;;;2.15;1.48;;;11.60;39.80;;;;;;4997071;28;20049;-44
2022/04/19 02:15:05;;;;;;;2.28;1.45;;;11.60;40.00;;;;;;5001411;28;20062;-43
2022/04/19 02:17:33;;;;;;;3.03;1.60;;;11.50;40.10;;;;;;4999369;28;20073;-44
2022/04/19 02:20:02;;;;;;;3.42;2.05;;;11.50;40.10;;;;;;5001038;28;20069;-43
2022/04/19 02:22:29;;;;;;;2.17;1.42;;;11.50;40.00;;;;;;4997203;28;20066;-43
2022/04/19 02:24:58;;;;;;;2.00;1.35;;;11.40;39.90;;;;;;4999599;28;20054;-43
2022/04/19 02:27:26;;;;;;;2.85;1.70;;;11.40;39.90;;;;;;4998950;28;20064;-43
2022/04/19 02:29:54;;;;;;;3.22;1.88;;;11.40;39.90;;;;;;4999651;28;20498;-43
2022/04/19 02:32:24;;;;;;;2.88;1.58;;;11.30;39.90;;;;;;4997558;28;20678;-43
2022/04/19 02:34:51;;;;;;;2.75;1.73;;;11.30;39.90;;;;;;5000008;28;20068;-43
2022/04/19 02:37:19;;;;;;;3.65;1.98;;;11.30;40.10;;;;;;5000255;28;20057;-43
2022/04/19 02:39:47;;;;;;;2.60;1.40;;;11.30;40.20;;;;;;4999181;28;20564;-44
2022/04/19 02:42:15;;;;;;;2.63;1.75;;;11.20;40.30;;;;;;4995943;28;20076;-44
2022/04/19 02:44:43;;;;;;;2.47;1.45;;;11.20;40.40;;;;;;4999989;28;20050;-44
2022/04/19 02:47:11;;;;;;;4.32;1.80;;;11.20;40.50;;;;;;4999097;28;20422;-45
2022/04/19 02:49:40;;;;;;;3.05;1.90;;;11.20;40.60;;;;;;4997280;28;20409;-44
2022/04/19 02:52:08;;;;;;;9.20;2.03;;;11.20;40.70;;;;;;4995549;28;20050;-44
2022/04/19 02:54:37;;;;;;;3.58;1.92;;;11.20;40.80;;;;;;5000076;28;20046;-44
2022/04/19 02:57:05;;;;;;;3.63;2.00;;;11.10;40.80;;;;;;5001184;28;20061;-44
2022/04/19 02:59:32;;;;;;;3.25;1.75;;;11.10;40.80;;;;;;5004254;28;20054;-43
2022/04/19 03:01:59;;;;;;;3.33;1.63;;;11.10;40.90;;;;;;5001633;28;20051;-43
2022/04/19 03:04:27;;;;;;;4.60;1.75;;;11.10;41.50;;;;;;4998080;28;20398;-44
2022/04/19 03:06:56;;;;;;;3.15;1.60;;;11.00;41.00;;;;;;5001881;28;20061;-44
2022/04/19 03:09:23;;;;;;;2.17;1.38;;;11.00;41.10;;;;;;5001519;28;20057;-44
2022/04/19 03:11:50;;;;;;;6.05;1.70;;;11.00;41.20;;;;;;5001455;28;20057;-43
2022/04/19 03:14:19;;;;;;;4.78;1.63;;;11.00;41.30;;;;;;5003860;28;20482;-43
2022/04/19 03:16:47;;;;;;;4.10;2.30;;;11.00;41.40;;;;;;5003841;28;20049;-43
2022/04/19 03:19:14;;;;;;;3.60;1.98;;;10.90;41.50;;;;;;4999762;28;20394;-44
2022/04/19 03:21:42;;;;;;;2.83;1.70;;;10.90;41.50;;;;;;5000054;28;21001;-43
2022/04/19 03:29:40;;;;;;;4.57;2.05;;;10.80;41.40;;;;;;5007731;28;20083;-44
2022/04/19 03:32:09;;;;;;;4.28;2.00;;;10.80;41.40;;;;;;5000172;28;20402;-44
2022/04/19 03:34:37;;;;;;;2.95;1.77;;;10.70;41.50;;;;;;5002525;28;20117;-43
2022/04/19 03:37:05;;;;;;;2.58;1.55;;;10.70;41.50;;;;;;5003007;28;20410;-44
2022/04/19 03:39:33;;;;;;;6.75;1.92;;;10.60;41.50;;;;;;5001321;28;20426;-48
2022/04/19 03:42:01;;;;;;;3.28;1.90;;;10.50;41.60;;;;;;4997679;28;20125;-45
2022/04/19 03:44:29;;;;;;;4.30;2.15;;;10.60;41.70;;;;;;5002625;28;20057;-44
2022/04/19 03:47:09;;;;;;;4.65;2.13;;;10.50;41.60;;;;;;5002183;28;20550;-44
2022/04/19 03:49:37;;;;;;;4.55;2.15;;;10.50;41.70;;;;;;4999575;28;20061;-44
2022/04/19 03:52:05;;;;;;;3.58;1.73;;;10.50;41.70;;;;;;4999154;28;20068;-44
2022/04/19 03:54:35;;;;;;;3.42;2.20;;;10.40;41.70;;;;;;5002330;28;20061;-44
2022/04/19 03:57:04;;;;;;;4.90;2.13;;;10.40;41.90;;;;;;5001815;28;20053;-45
2022/04/19 03:59:32;;;;;;;5.18;1.88;;;10.40;41.90;;;;;;5001996;28;20054;-44
2022/04/19 04:01:59;;;;;;;3.10;1.92;;;10.30;42.00;;;;;;4998768;28;20069;-44
2022/04/19 04:04:30;;;;;;;3.00;1.95;;;10.40;42.10;;;;;;5002296;28;20049;-44
2022/04/19 04:06:58;;;;;;;3.30;1.92;;;10.30;42.20;;;;;;5001400;28;20447;-44
2022/04/19 04:09:30;;;;;;;3.20;2.00;;;10.30;42.20;;;;;;4998592;28;20061;-43
2022/04/19 04:11:59;;;;;;;4.03;2.08;;;10.30;42.30;;;;;;4998586;28;20049;-44
2022/04/19 04:14:27;;;;;;;3.67;2.13;;;10.30;42.40;;;;;;5002822;28;20058;-44
2022/04/19 04:16:54;;;;;;;4.72;2.05;;;10.30;42.40;;;;;;4991224;28;20053;-44
2022/04/19 04:19:21;;;;;;;3.08;2.08;;;10.20;42.40;;;;;;5000404;28;20068;-45
2022/04/19 04:21:49;;;;;;;4.82;1.83;;;10.20;42.50;;;;;;4998660;28;20045;-44
2022/04/19 04:24:17;;;;;;;2.92;1.88;;;10.20;42.50;;;;;;5001223;28;20061;-43
2022/04/19 04:26:44;;;;;;;4.25;2.20;;;10.10;42.60;;;;;;4997398;28;20516;-43
2022/04/19 04:29:13;;;;;;;4.80;2.47;;;10.10;42.70;;;;;;4997383;28;20061;-46
2022/04/19 04:31:41;;;;;;;4.82;2.30;;;10.10;42.70;;;;;;4998541;28;20057;-44
2022/04/19 04:34:08;;;;;;;3.13;2.00;;;10.10;42.80;;;;;;4999048;28;20151;-44
2022/04/19 04:36:36;;;;;;;3.35;1.95;;;10.00;42.80;;;;;;4999775;28;20050;-45
2022/04/19 04:39:04;;;;;;;4.72;2.10;;;10.00;42.90;;;;;;5001140;28;20054;-44
2022/04/19 04:41:31;;;;;;;3.78;2.22;;;10.00;42.90;;;;;;4998126;28;20645;-47
2022/04/19 04:43:58;;;;;;;3.53;2.10;;;10.00;43.00;;;;;;4999057;28;20374;-44
2022/04/19 04:51:57;;;;;;;5.93;2.83;;;9.90;43.10;;;;;;5007569;28;20062;-44
2022/04/19 04:54:25;;;;;;;5.13;2.17;;;9.90;43.10;;;;;;5001324;28;20056;-44
2022/04/19 04:56:53;;;;;;;5.43;2.40;;;9.90;43.20;;;;;;4999995;28;20060;-44
2022/04/19 04:59:20;;;;;;;4.55;2.58;;;9.90;43.20;;;;;;4997675;28;20061;-44
2022/04/19 05:01:49;;;;;;;2.63;1.90;;;9.80;43.30;;;;;;4997654;28;20054;-44
2022/04/19 05:04:16;;;;;;;7.80;2.83;;;9.80;43.50;;;;;;5002021;28;20060;-43
2022/04/19 05:06:44;;;;;;;5.50;2.72;;;9.80;43.60;;;;;;4997422;28;20057;-44
2022/04/19 05:09:12;;;;;;;3.20;1.90;;;9.80;43.60;;;;;;4998787;28;20509;-45
2022/04/19 05:11:39;;;;;;;4.57;2.35;;;9.80;43.60;;;;;;4999528;28;20053;-44
2022/04/19 05:14:07;;;;;;;4.53;2.13;;;9.80;44.10;;;;;;4995968;28;20049;-44
2022/04/19 05:16:35;;;;;;;3.47;2.20;;;9.80;43.70;;;;;;4999522;28;20053;-43
2022/04/19 05:19:04;;;;;;;11.00;2.55;;;9.80;44.00;;;;;;4999842;28;20072;-45
2022/04/19 05:21:32;;;;;;;4.63;2.15;;;9.80;44.70;;;;;;4981927;28;20058;-44
2022/04/19 05:23:59;;;;;;;4.82;2.00;;;9.80;44.10;;;;;;5000749;28;20041;-45
2022/04/19 05:26:28;;;;;;;6.43;2.40;;;9.80;44.10;;;;;;4998478;28;20057;-44
2022/04/19 05:28:55;;;;;;;8.73;2.15;;;9.80;44.10;;;;;;4999311;28;20053;-44
2022/04/19 05:31:24;;;;;;;4.35;2.00;;;9.90;44.10;;;;;;4998524;28;20057;-43
2022/04/19 05:33:51;;;;;;;3.65;2.08;;;9.90;44.30;;;;;;4996564;28;20532;-46
2022/04/19 05:36:20;;;;;;;4.93;2.28;;;9.90;44.30;;;;;;5001039;28;20057;-43
2022/04/19 05:38:52;;;;;;;5.43;2.30;;;9.90;44.20;;;;;;4996891;28;20391;-43
2022/04/19 05:41:20;;;;;;;4.38;2.30;;;9.90;44.10;;;;;;4996101;28;20057;-45
2022/04/19 05:43:48;;;;;;;3.97;2.17;;;10.00;44.20;;;;;;4997098;28;20053;-44
2022/04/19 05:46:17;;;;;;;4.00;1.98;;;10.00;44.30;;;;;;4997542;28;20494;-45
2022/04/19 05:48:44;;;;;;;3.90;2.30;;;10.10;44.60;;;;;;5001095;28;20403;-48
2022/04/19 05:51:12;;;;;;;4.57;2.20;;;10.10;44.40;;;;;;4999381;28;20054;-44
2022/04/19 05:53:41;;;;;;;7.40;2.10;;;10.10;44.50;;;;;;5001093;28;20482;-44
2022/04/19 05:56:09;;;;;;;3.13;1.90;;;10.20;44.60;;;;;;4998385;28;20053;-47
2022/04/19 05:58:36;;;;;;;4.55;2.17;;;10.30;44.60;;;;;;4998577;28;20054;-45
2022/04/19 06:01:04;;;;;;;6.18;2.50;;;10.30;44.50;;;;;;4996433;28;20582;-44
2022/04/19 06:06:16;;;;;;;2.97;2.15;;;10.40;44.70;;;;;;5000117;28;20057;-43
2022/04/19 06:08:45;;;;;;;3.47;1.98;;;10.50;44.60;;;;;;5000096;28;20050;-44
2022/04/19 06:11:13;;;;;;;3.78;2.22;;;10.50;44.80;;;;;;4999391;28;20061;-47
2022/04/19 06:13:40;;;;;;;5.90;2.40;;;10.60;45.20;;;;;;4998220;28;20050;-45
2022/04/19 06:16:08;;;;;;;5.63;2.72;;;10.70;45.10;;;;;;4994964;28;20057;-43
2022/04/19 06:18:36;;;;;;;4.47;2.45;;;10.70;44.90;;;;;;4999234;28;20073;-44
2022/04/19 06:21:05;;;;;;;18.25;3.00;;;10.80;44.80;;;;;;4998427;28;20054;-43
2022/04/19 06:23:33;;;;;;;5.50;1.80;;;10.90;44.90;;;;;;4997088;28;20422;-44
2022/04/19 06:26:03;;;;;;;4.10;2.60;;;10.90;44.80;;;;;;4997890;28;20064;-45
2022/04/19 06:28:30;;;;;;;4.28;2.47;;;11.00;44.80;;;;;;4998700;28;20552;-44
2022/04/19 06:30:58;;;;;;;11.07;2.53;;;11.00;44.60;;;;;;5002280;28;20658;-44
2022/04/19 06:33:26;;;;;;;3.10;2.10;;;11.10;44.50;;;;;;5003732;28;20054;-44
2022/04/19 06:35:53;;;;;;;5.97;2.70;;;11.20;44.40;;;;;;5006965;28;20057;-44
2022/04/19 06:38:20;;;;;;;10.05;2.90;;;11.20;44.40;;;;;;5007358;28;20417;-46
2022/04/19 06:40:48;;;;;;;3.65;2.35;;;11.30;44.30;;;;;;5005289;28;20073;-46
2022/04/19 06:43:17;;;;;;;4.38;2.53;;;11.40;44.10;;;;;;5000952;28;20065;-46
2022/04/19 06:45:45;;;;;;;3.97;3.00;;;11.40;44.10;;;;;;5007082;28;20421;-43
2022/04/19 06:48:12;;;;;;;5.68;2.55;;;11.50;44.20;;;;;;5005829;28;20065;-46
2022/04/19 06:50:40;;;;;;;3.13;2.33;;;11.60;44.20;;;;;;5004744;28;20046;-45
2022/04/19 06:53:08;;;;;;;3.70;2.70;;;11.70;44.20;;;;;;5003780;28;20604;-44
2022/04/19 06:55:35;;;;;;;4.78;2.60;;;11.70;44.10;;;;;;5005995;28;20050;-44
2022/04/19 06:58:03;;;;;;;5.07;2.33;;;11.80;44.00;;;;;;5004510;28;20380;-44
2022/04/19 07:00:31;;;;;;;3.08;2.15;;;11.90;44.00;;;;;;5001816;28;20050;-43
2022/04/19 07:03:00;;;;;;;2.92;2.13;;;11.90;44.00;;;;;;5000596;28;20061;-44
2022/04/19 07:05:27;;;;;;;3.92;2.33;;;12.00;44.00;;;;;;5006211;28;20418;-45
2022/04/19 07:07:55;;;;;;;6.00;2.55;;;12.10;44.00;;;;;;5006581;28;20054;-44
2022/04/19 07:10:23;;;;;;;3.92;2.47;;;12.20;43.90;;;;;;5004296;28;20060;-45
2022/04/19 07:12:50;;;;;;;3.42;2.42;;;12.20;43.80;;;;;;5000643;28;20410;-44
2022/04/19 07:15:19;;;;;;;3.55;2.58;;;12.30;43.80;;;;;;5005589;28;20121;-44
2022/04/19 07:17:47;;;;;;;6.13;2.70;;;12.40;44.00;;;;;;5007150;28;20061;-44
2022/04/19 07:28:35;;;;;;;7.03;2.58;;;12.70;44.00;;;;;;5004061;28;20065;-44
2022/04/19 07:31:03;;;;;;;7.63;2.88;;;12.80;43.90;;;;;;5001717;28;20091;-44
2022/04/19 07:33:32;;;;;;;4.40;2.50;;;12.90;44.20;;;;;;5002193;28;20054;-44
2022/04/19 07:35:59;;;;;;;5.10;2.33;;;13.00;43.90;;;;;;5002478;28;20049;-44
2022/04/19 07:38:27;;;;;;;3.67;2.10;;;13.10;44.00;;;;;;5002651;28;20447;-44
2022/04/19 07:40:55;;;;;;;5.03;2.17;;;13.20;44.10;;;;;;5003526;28;20156;-48
2022/04/19 07:43:22;;;;;;;5.85;2.08;;;13.20;44.00;;;;;;4995010;28;20045;-44
2022/04/19 07:45:49;;;;;;;5.78;2.17;;;13.30;43.80;;;;;;5000329;28;20646;-44
2022/04/19 07:48:18;;;;;;;3.10;1.73;;;13.50;43.80;;;;;;4998837;28;20058;-44
2022/04/19 07:50:47;;;;;;;2.63;1.75;;;13.50;43.60;;;;;;5001162;28;20054;-43
2022/04/19 07:53:15;;;;;;;3.55;2.08;;;13.60;43.70;;;;;;5000278;28;20548;-44
2022/04/19 07:55:42;;;;;;;4.45;2.10;;;13.70;43.40;;;;;;5001508;28;20069;-43
2022/04/19 07:58:10;;;;;;;16.80;7.68;;;13.80;42.90;;;;;;5000820;28;20062;-43
2022/04/19 08:00:37;;;;;;;9.43;4.32;;;13.90;42.70;;;;;;4999694;28;20433;-45
2022/04/19 08:03:05;;;;;;;4.15;2.83;;;13.90;42.40;;;;;;4994339;28;20068;-45
2022/04/19 08:05:32;;;;;;;3.70;2.42;;;14.00;42.30;;;;;;4998230;28;20050;-44
2022/04/19 08:08:01;;;;;;;5.63;2.80;;;14.10;42.20;;;;;;4994182;28;20042;-44
2022/04/19 08:10:29;;;;;;;4.15;2.33;;;14.20;42.10;;;;;;4992139;28;20057;-43
2022/04/19 08:12:56;;;;;;;4.43;2.35;;;14.30;41.90;;;;;;4997811;28;20053;-45
2022/04/19 08:15:24;;;;;;;4.32;2.53;;;14.40;41.60;;;;;;4994791;28;20509;-44
2022/04/19 08:17:52;;;;;;;4.82;2.35;;;14.40;41.20;;;;;;4993392;28;20498;-43
2022/04/19 08:20:20;;;;;;;3.92;2.65;;;14.50;40.80;;;;;;5001342;28;20074;-43
2022/04/19 08:22:47;;;;;;;4.32;2.60;;;14.60;40.80;;;;;;4996535;28;20054;-43
2022/04/19 08:25:16;;;;;;;4.80;2.70;;;14.60;40.60;;;;;;5000175;28;20488;-43
2022/04/19 08:27:46;;;;;;;5.03;2.65;;;14.70;40.60;;;;;;4997600;28;20481;-44
2022/04/19 08:30:15;;;;;;;4.82;2.63;;;14.80;40.90;;;;;;5003547;28;20045;-44
2022/04/19 08:32:44;;;;;;;5.55;3.10;;;14.90;41.20;;;;;;5003376;28;20050;-44
2022/04/19 08:35:11;;;;;;;5.93;2.50;;;14.90;40.80;;;;;;5002077;28;20061;-45
2022/04/19 08:37:39;;;;;;;4.57;2.67;;;15.00;40.50;;;;;;4999716;28;20494;-43
2022/04/19 08:40:09;;;;;;;6.55;3.58;;;15.10;40.30;;;;;;5001626;28;20060;-43
2022/04/19 08:42:40;;;;;;;11.75;5.18;;;15.20;38.80;;;;;;5001331;28;20050;-44
2022/04/19 08:45:10;;;;;;;4.53;2.75;;;15.20;38.90;;;;;;5002764;28;20057;-44
2022/04/19 08:47:39;;;;;;;4.93;2.95;;;15.30;39.40;;;;;;5003019;28;20491;-46
2022/04/19 08:50:09;;;;;;;4.55;3.05;;;15.30;39.60;;;;;;5000081;28;20061;-45
2022/04/19 08:52:37;;;;;;;4.28;2.55;;;15.40;39.50;;;;;;4998731;28;20061;-43
2022/04/19 08:57:53;;;;;;;4.75;3.20;;;15.50;39.40;;;;;;5004868;28;20057;-43
2022/04/19 09:00:22;;;;;;;4.18;2.50;;;15.60;38.90;;;;;;5003101;28;20057;-46
2022/04/19 09:02:50;;;;;;;4.10;2.45;;;15.60;39.10;;;;;;5001959;28;20068;-43
2022/04/19 09:05:21;;;;;;;5.82;3.05;;;15.70;39.10;;;;;;5001586;28;20061;-43
2022/04/19 09:07:49;;;;;;;4.70;2.45;;;15.70;38.80;;;;;;5001259;28;20049;-44
2022/04/19 09:10:26;;;;;;;5.10;2.75;;;15.80;38.70;;;;;;4999139;28;20069;-43
2022/04/19 09:13:04;;;;;;;4.47;2.78;;;15.90;38.30;;;;;;4999755;28;20061;-46
2022/04/19 09:15:36;;;;;;;5.38;2.53;;;15.90;37.60;;;;;;5003165;28;20058;-44
2022/04/19 09:18:04;;;;;;;5.65;2.75;;;16.00;38.20;;;;;;5002716;28;20062;-44
2022/04/19 09:20:32;;;;;;;5.03;2.90;;;16.00;38.30;;;;;;5001443;28;20054;-44
2022/04/19 09:23:05;;;;;;;4.28;2.67;;;16.00;38.00;;;;;;4998789;28;20565;-44
2022/04/19 09:25:33;;;;;;;4.75;2.58;;;16.10;37.70;;;;;;5001129;28;20050;-44
2022/04/19 09:28:05;;;;;;;4.30;2.78;;;16.10;37.70;;;;;;5001321;28;20133;-45
2022/04/19 09:30:35;;;;;;;4.60;2.50;;;16.20;37.50;;;;;;4999824;28;20058;-43
2022/04/19 09:33:04;;;;;;;5.30;2.33;;;16.20;37.60;;;;;;4999519;28;20060;-43
2022/04/19 09:35:35;;;;;;;4.57;3.00;;;16.30;37.70;;;;;;5001142;28;20056;-43
2022/04/19 09:38:03;;;;;;;5.47;2.63;;;16.30;37.00;;;;;;4999822;28;20601;-43
2022/04/19 09:40:32;;;;;;;4.45;2.45;;;16.30;36.90;;;;;;5000347;28;20058;-44
2022/04/19 09:43:10;;;;;;;6.60;2.60;;;16.40;37.10;;;;;;4996808;28;20060;-44
2022/04/19 09:45:50;;;;;;;7.35;2.90;;;16.50;36.70;;;;;;5001247;28;20054;-45
2022/04/19 09:48:19;;;;;;;4.93;2.70;;;16.50;36.90;;;;;;5002148;28;20050;-43
2022/04/19 09:50:51;;;;;;;6.28;3.05;;;16.60;36.80;;;;;;5000951;28;20060;-43
2022/04/19 09:53:21;;;;;;;6.47;3.15;;;16.60;36.70;;;;;;4998443;28;20057;-44
2022/04/19 09:55:49;;;;;;;5.43;3.10;;;16.70;36.90;;;;;;5000962;28;20053;-43
2022/04/19 09:58:18;;;;;;;4.28;2.33;;;16.70;36.70;;;;;;4999540;28;20054;-43
2022/04/19 10:00:47;;;;;;;5.20;2.70;;;16.70;36.50;;;;;;5001423;28;20498;-43
2022/04/19 10:09:00;;;;;;;5.97;2.95;;;16.90;36.10;;;;;;4926591;29;20043;-43
2022/04/19 10:11:29;;;;;;;5.13;3.03;;;16.90;36.20;;;;;;4981169;28;20052;-44
2022/04/19 10:13:59;;;;;;;6.35;3.30;;;17.00;36.30;;;;;;5000959;28;20058;-43
2022/04/19 10:16:29;;;;;;;9.85;3.88;;;17.00;36.30;;;;;;5002060;28;20045;-43
2022/04/19 10:18:57;;;;;;;6.38;3.15;;;17.00;36.10;;;;;;5000733;28;20668;-43
2022/04/19 10:21:27;;;;;;;7.88;2.95;;;17.10;36.00;;;;;;4999885;28;20068;-45
2022/04/19 10:24:10;;;;;;;4.30;2.83;;;17.10;36.10;;;;;;5000887;28;20069;-45
2022/04/19 10:26:45;;;;;;;5.38;3.03;;;17.20;35.80;;;;;;4972434;28;21761;-46
2022/04/19 10:29:23;;;;;;;6.30;3.60;;;17.30;36.10;;;;;;4996167;28;20061;-44
2022/04/19 10:31:59;;;;;;;6.22;3.42;;;17.30;35.90;;;;;;4991774;28;20048;-43
2022/04/19 10:34:29;;;;;;;4.60;3.20;;;17.40;35.20;;;;;;4997584;28;20057;-44
2022/04/19 10:36:58;;;;;;;4.10;2.95;;;17.50;35.20;;;;;;4999592;28;20046;-44
2022/04/19 10:39:27;;;;;;;4.18;2.50;;;17.50;35.00;;;;;;4996476;28;20054;-44
2022/04/19 10:41:58;;;;;;;3.85;2.50;;;17.50;34.40;;;;;;4996022;28;20065;-47
2022/04/19 10:44:32;;;;;;;4.32;2.30;;;17.50;33.00;;;;;;4999007;28;20054;-44
2022/04/19 10:47:14;;;;;;;3.95;2.22;;;17.60;33.60;;;;;;4997886;28;20050;-46
2022/04/19 10:50:05;;;;;;;4.72;2.53;;;17.70;32.20;;;;;;4996520;28;20061;-44
2022/04/19 10:52:48;;;;;;;4.13;2.33;;;17.80;33.80;;;;;;4996829;28;20057;-45
2022/04/19 10:55:24;;;;;;;3.97;2.50;;;17.90;34.00;;;;;;4999465;28;20057;-43
2022/04/19 10:58:09;;;;;;;4.43;2.70;;;17.90;34.10;;;;;;4999511;28;20050;-46
2022/04/19 11:00:53;;;;;;;4.40;2.70;;;18.00;34.10;;;;;;4997723;28;20049;-44
2022/04/19 11:03:39;;;;;;;3.22;2.35;;;18.00;34.20;;;;;;4994942;28;20061;-45
2022/04/19 11:06:09;;;;;;;3.78;2.65;;;18.10;34.30;;;;;;4999823;28;20053;-45
2022/04/19 11:08:38;;;;;;;3.92;2.85;;;18.10;34.10;;;;;;4998597;28;20478;-46
2022/04/19 11:11:23;;;;;;;6.85;2.88;;;18.10;34.10;;;;;;4996092;28;20417;-44
2022/04/19 11:14:28;;;;;;;8.15;3.08;;;18.10;34.10;;;;;;4999429;28;20076;-44
2022/04/19 11:17:24;;;;;;;3.58;2.50;;;18.20;34.40;;;;;;4999563;28;20498;-44
2022/04/19 11:19:56;;;;;;;11.63;2.75;;;18.20;34.10;;;;;;5000070;28;20057;-44
2022/04/19 11:22:44;;;;;;;3.95;2.92;;;18.30;33.60;;;;;;4999729;28;20080;-43
2022/04/19 11:25:11;;;;;;;4.75;3.17;;;18.20;33.80;;;;;;5000242;28;20049;-45
2022/04/19 11:28:16;;;;;;;7.93;3.63;;;18.30;33.80;;;;;;5000528;28;20061;-44
2022/04/19 11:30:45;;;;;;;5.00;3.05;;;18.30;32.00;;;;;;4999604;28;20061;-44
2022/04/19 11:33:22;;;;;;;8.30;3.33;;;18.40;33.30;;;;;;5000755;28;20064;-44
2022/04/19 11:36:00;;;;;;;6.70;3.45;;;18.40;33.20;;;;;;5003670;28;20061;-43
2022/04/19 11:38:28;;;;;;;6.68;3.42;;;18.50;32.80;;;;;;5003644;28;20054;-44
2022/04/19 11:46:45;;;;;;;7.20;3.55;;;18.70;32.60;;;;;;5007182;28;20064;-44
2022/04/19 11:49:30;;;;;;;5.20;2.80;;;18.80;32.50;;;;;;5000300;28;20057;-44
2022/04/19 11:51:57;;;;;;;;;;;18.90;32.60;;;;;;4999088;28;20498;-44
2022/04/19 11:54:26;;;;;;;3.75;2.30;;;19.00;33.20;;;;;;5001274;28;19933;-46
2022/04/19 11:56:55;;;;;;;4.05;2.50;;;19.10;33.00;;;;;;4995946;28;20525;-44
2022/04/19 11:59:27;;;;;;;5.35;3.28;;;19.10;32.30;;;;;;5001818;28;20057;-44
2022/04/19 12:01:55;;;;;;;5.63;3.60;;;19.20;32.50;;;;;;4993591;28;20072;-44
2022/04/19 12:04:25;;;;;;;5.90;3.38;;;19.20;32.00;;;;;;4999328;28;20052;-44
2022/04/19 12:06:54;;;;;;;6.30;3.25;;;19.20;31.80;;;;;;5000676;28;20061;-45
2022/04/19 12:09:22;;;;;;;5.10;3.38;;;19.30;30.80;;;;;;5001209;28;20050;-44
2022/04/19 12:11:50;;;;;;;6.00;2.33;;;19.40;31.80;;;;;;5002038;28;20490;-47
2022/04/19 12:14:27;;;;;;;4.53;2.80;;;19.40;32.20;;;;;;5002546;28;20054;-44
2022/04/19 12:16:57;;;;;;;7.18;2.95;;;19.40;31.60;;;;;;5002271;28;20623;-44
2022/04/19 12:19:38;;;;;;;4.00;2.78;;;19.50;32.00;;;;;;4998551;28;20057;-44
2022/04/19 12:22:19;;;;;;;7.68;3.13;;;19.50;31.80;;;;;;4997932;28;20073;-44
2022/04/19 12:24:49;;;;;;;4.93;2.80;;;19.60;32.10;;;;;;4992805;28;20061;-45
2022/04/19 12:27:23;;;;;;;3.55;2.53;;;19.60;32.00;;;;;;4995086;28;20548;-44
2022/04/19 12:29:59;;;;;;;4.63;2.40;;;19.60;31.90;;;;;;4998652;28;20062;-44
2022/04/19 12:32:27;;;;;;;5.47;2.83;;;19.70;31.60;;;;;;4999224;28;20054;-48
2022/04/19 12:35:09;;;;;;;4.50;2.80;;;19.60;31.60;;;;;;4992672;28;20057;-44
2022/04/19 12:37:37;;;;;;;4.30;2.92;;;19.70;31.40;;;;;;4998766;28;20065;-44
2022/04/19 12:40:05;;;;;;;6.82;3.58;;;19.70;30.60;;;;;;4997493;28;20064;-44
2022/04/19 12:42:50;;;;;;;5.40;3.40;;;19.70;29.60;;;;;;4999178;28;20060;-44
2022/04/19 12:45:18;;;;;;;7.07;2.90;;;19.70;29.30;;;;;;5000277;28;20504;-44
2022/04/19 12:47:47;;;;;;;5.20;3.17;;;19.80;30.00;;;;;;4998634;28;20522;-44
2022/04/19 12:50:19;;;;;;;3.65;2.42;;;19.90;30.50;;;;;;5001951;28;20057;-44
2022/04/19 12:52:50;;;;;;;5.50;3.25;;;19.90;30.80;;;;;;4998114;28;20066;-44
2022/04/19 12:55:29;;;;;;;4.25;2.47;;;20.00;30.60;;;;;;5001168;28;20418;-44
2022/04/19 12:58:07;;;;;;;17.63;4.10;;;20.00;30.60;;;;;;4994599;28;20057;-43
2022/04/19 13:00:35;;;;;;;6.15;3.55;;;20.00;30.40;;;;;;4997132;28;20058;-45
2022/04/19 13:03:04;;;;;;;8.35;4.15;;;20.10;31.20;;;;;;4994248;28;20517;-44
2022/04/19 13:13:45;;;;;;;3.67;2.72;;;20.20;29.50;;;;;;5000785;28;20061;-44
2022/04/19 13:16:12;;;;;;;5.57;3.72;;;20.20;29.50;;;;;;4999525;28;20045;-43
2022/04/19 13:18:40;;;;;;;7.90;3.72;;;20.20;28.80;;;;;;4997884;28;20442;-43
2022/04/19 13:21:09;;;;;;;5.55;3.50;;;20.20;29.40;;;;;;4992040;28;20666;-43
2022/04/19 13:23:37;;;;;;;3.70;2.58;;;20.20;28.80;;;;;;4993164;28;20058;-43
2022/04/19 13:26:05;;;;;;;3.08;2.60;;;20.30;29.60;;;;;;4990985;28;20065;-43
2022/04/19 13:28:33;;;;;;;2.70;2.00;;;20.30;29.60;;;;;;4992428;28;20050;-43
2022/04/19 13:31:01;;;;;;;3.17;2.30;;;20.40;30.10;;;;;;5002553;28;20050;-43
2022/04/19 13:33:30;;;;;;;3.10;2.22;;;20.40;30.50;;;;;;5002231;28;20056;-44
2022/04/19 13:35:57;;;;;;;4.25;2.83;;;20.40;30.00;;;;;;5002200;28;20072;-43
2022/04/19 13:38:27;;;;;;;4.03;2.53;;;20.40;30.00;;;;;;4999084;28;20061;-48
2022/04/19 13:40:54;;;;;;;3.78;2.53;;;20.50;29.80;;;;;;5000346;28;20418;-45
2022/04/19 13:43:21;;;;;;;4.10;2.03;;;20.50;29.60;;;;;;4994189;28;20061;-45
2022/04/19 13:45:49;;;;;;;4.68;2.30;;;20.50;29.70;;;;;;4991719;28;20054;-44
2022/04/19 13:48:16;;;;;;;7.32;2.20;;;20.50;29.90;;;;;;4993555;28;20054;-45